Denver International Airport
KDEN : now visible

Airfield :











YOU CAN JOIN US ON...

 
LOGIN :

Register | Disclaimer

   EN    FR    IT 

 









Legend :    VFR   Marginal VFR   IFR   Intensive IFR   Very Intensive IFR
Visi :
Ceiling :
>= 8 km
>= 3000ft
5 to 8 km
1000 to 3000 ft
1500m to 5 km
500 to 1000 ft
800 to 1500m
200 to 500 ft
< 800m
< 200 ft
Symbols :   Thunderstorms  Fog  Heavy snow  Heavy precipitations  Wind > 20 kt






- Airport Elevation : 5431 ft
- IATA code : DEN


KDEN - Denver International

CURRENT METAR :
  • 240353Z 18003KT 10SM SCT130 BKN220 18/01 A3016 RMK AO2 SLP139 T01830011

EXPIRED METARs :
  • 240253Z 19006KT 10SM SCT140 SCT220 22/M01 A3015 RMK AO2 SLP131 T02221006 53008
  • 240153Z 00000KT 10SM SCT140 SCT220 25/M02 A3014 RMK AO2 SLP127 T02501017

TAF KDEN
Valid from the 24 at 03:00 until the 25 at 06:00 UTC


240300Z 2403/2506 18007KT P6SM FEW100 SCT220
FM240400 21010KT P6SM FEW140 SCT220
FM241800 12011KT P6SM FEW140 SCT220
FM250300 23010KT P6SM FEW140 SCT220
KZDV FIR / North America



MET'MAP, your aeronautical weather chart ! - Copyright ORBIFLY December 2007 - Disclaimer

ORBIFLY MET'MAP TEAM :

Programming & Development : Alexandra Zaïnal
Concept & original design : Baudouin d'Aumeries
Assistance for programming : Marc-Olivier Méhu
Technical & hardware support : Manuel Goepfert

Contact : metmap@orbifly.com




SOURCES & CREDITS :

   NOAA       Earth
Advisory